sensor_id;sensor_type;location;lat;lon;timestamp;pressure;altitude;pressure_sealevel;temperature;humidity
66887;BME280;67239;51.680;5.976;2023-08-24T00:02:02;101640.81;;;18.34;83.33
66887;BME280;67239;51.680;5.976;2023-08-24T00:04:29;101646.72;;;18.41;83.34
66887;BME280;67239;51.680;5.976;2023-08-24T00:06:56;101639.34;;;18.46;82.58
66887;BME280;67239;51.680;5.976;2023-08-24T00:09:23;101639.75;;;18.38;83.09
66887;BME280;67239;51.680;5.976;2023-08-24T00:11:51;101636.03;;;18.23;83.56
66887;BME280;67239;51.680;5.976;2023-08-24T00:14:19;101639.78;;;18.19;84.14
66887;BME280;67239;51.680;5.976;2023-08-24T00:16:46;101635.84;;;18.09;84.35
66887;BME280;67239;51.680;5.976;2023-08-24T00:19:13;101640.84;;;17.97;84.84
66887;BME280;67239;51.680;5.976;2023-08-24T00:21:40;101648.31;;;17.89;84.81
66887;BME280;67239;51.680;5.976;2023-08-24T00:24:07;101643.13;;;17.86;85.39
66887;BME280;67239;51.680;5.976;2023-08-24T00:26:34;101635.22;;;17.84;85.73
66887;BME280;67239;51.680;5.976;2023-08-24T00:29:01;101637.97;;;17.83;85.84
66887;BME280;67239;51.680;5.976;2023-08-24T00:31:28;101634.50;;;17.81;85.97
66887;BME280;67239;51.680;5.976;2023-08-24T00:33:56;101635.44;;;17.80;86.26
66887;BME280;67239;51.680;5.976;2023-08-24T00:36:24;101631.53;;;17.87;86.12
66887;BME280;67239;51.680;5.976;2023-08-24T00:38:52;101625.72;;;17.98;86.03
66887;BME280;67239;51.680;5.976;2023-08-24T00:41:20;101632.16;;;18.11;85.49
66887;BME280;67239;51.680;5.976;2023-08-24T00:43:48;101639.00;;;18.17;84.65
66887;BME280;67239;51.680;5.976;2023-08-24T00:46:17;101632.94;;;18.13;84.28
66887;BME280;67239;51.680;5.976;2023-08-24T00:48:46;101636.06;;;18.04;84.43
66887;BME280;67239;51.680;5.976;2023-08-24T00:51:14;101639.25;;;17.93;84.84
66887;BME280;67239;51.680;5.976;2023-08-24T00:53:42;101640.56;;;17.84;84.58
66887;BME280;67239;51.680;5.976;2023-08-24T00:56:09;101653.47;;;17.75;84.49
66887;BME280;67239;51.680;5.976;2023-08-24T00:58:38;101641.34;;;17.67;84.73
66887;BME280;67239;51.680;5.976;2023-08-24T01:01:05;101634.47;;;17.63;85.40
66887;BME280;67239;51.680;5.976;2023-08-24T01:03:33;101639.84;;;17.62;86.07
66887;BME280;67239;51.680;5.976;2023-08-24T01:06:00;101634.81;;;17.56;86.13
66887;BME280;67239;51.680;5.976;2023-08-24T01:08:27;101633.22;;;17.51;86.22
66887;BME280;67239;51.680;5.976;2023-08-24T01:10:59;101635.25;;;17.46;86.11
66887;BME280;67239;51.680;5.976;2023-08-24T01:13:48;101637.25;;;17.41;86.05
66887;BME280;67239;51.680;5.976;2023-08-24T01:16:28;101631.16;;;17.39;86.45
66887;BME280;67239;51.680;5.976;2023-08-24T01:19:00;101633.00;;;17.37;86.73
66887;BME280;67239;51.680;5.976;2023-08-24T01:21:33;101627.81;;;17.34;86.93
66887;BME280;67239;51.680;5.976;2023-08-24T01:24:45;101625.06;;;17.35;87.63
66887;BME280;67239;51.680;5.976;2023-08-24T01:27:14;101617.16;;;17.34;87.77
66887;BME280;67239;51.680;5.976;2023-08-24T01:29:42;101626.16;;;17.31;87.85
66887;BME280;67239;51.680;5.976;2023-08-24T01:32:10;101620.84;;;17.31;88.14
66887;BME280;67239;51.680;5.976;2023-08-24T01:34:38;101620.16;;;17.26;88.00
66887;BME280;67239;51.680;5.976;2023-08-24T01:37:06;101618.59;;;17.22;88.16
66887;BME280;67239;51.680;5.976;2023-08-24T01:39:42;101611.53;;;17.21;88.34
66887;BME280;67239;51.680;5.976;2023-08-24T01:42:20;101611.63;;;17.19;87.78
66887;BME280;67239;51.680;5.976;2023-08-24T01:44:56;101629.38;;;17.19;87.76
66887;BME280;67239;51.680;5.976;2023-08-24T01:47:27;101619.06;;;17.11;87.86
66887;BME280;67239;51.680;5.976;2023-08-24T01:49:56;101619.06;;;17.11;87.76
66887;BME280;67239;51.680;5.976;2023-08-24T01:52:24;101614.69;;;17.10;87.81
66887;BME280;67239;51.680;5.976;2023-08-24T01:54:52;101601.53;;;17.07;88.07
66887;BME280;67239;51.680;5.976;2023-08-24T01:57:19;101596.19;;;17.07;88.00
66887;BME280;67239;51.680;5.976;2023-08-24T01:59:46;101595.06;;;17.13;88.79
66887;BME280;67239;51.680;5.976;2023-08-24T02:02:13;101607.22;;;17.18;89.10
66887;BME280;67239;51.680;5.976;2023-08-24T02:04:40;101601.94;;;17.17;89.02
66887;BME280;67239;51.680;5.976;2023-08-24T02:07:07;101604.47;;;17.20;88.96
66887;BME280;67239;51.680;5.976;2023-08-24T02:09:35;101603.53;;;17.21;88.76
66887;BME280;67239;51.680;5.976;2023-08-24T02:12:02;101604.34;;;17.23;88.56
66887;BME280;67239;51.680;5.976;2023-08-24T02:14:29;101599.94;;;17.22;89.00
66887;BME280;67239;51.680;5.976;2023-08-24T02:16:56;101608.66;;;17.26;89.20
66887;BME280;67239;51.680;5.976;2023-08-24T02:19:24;101609.16;;;17.34;89.56
66887;BME280;67239;51.680;5.976;2023-08-24T02:21:51;101606.19;;;17.40;89.69
66887;BME280;67239;51.680;5.976;2023-08-24T02:24:18;101620.41;;;17.41;88.89
66887;BME280;67239;51.680;5.976;2023-08-24T02:26:45;101619.53;;;17.40;88.89
66887;BME280;67239;51.680;5.976;2023-08-24T02:29:12;101613.25;;;17.41;88.94
66887;BME280;67239;51.680;5.976;2023-08-24T02:31:39;101617.75;;;17.41;89.08
66887;BME280;67239;51.680;5.976;2023-08-24T02:34:07;101613.34;;;17.39;89.04
66887;BME280;67239;51.680;5.976;2023-08-24T02:36:36;101606.94;;;17.44;89.20
66887;BME280;67239;51.680;5.976;2023-08-24T02:39:03;101593.31;;;17.50;89.42
66887;BME280;67239;51.680;5.976;2023-08-24T02:41:31;101590.34;;;17.56;89.57
66887;BME280;67239;51.680;5.976;2023-08-24T02:43:58;101584.56;;;17.65;89.76
66887;BME280;67239;51.680;5.976;2023-08-24T02:46:26;101593.38;;;17.67;89.25
66887;BME280;67239;51.680;5.976;2023-08-24T02:48:53;101605.34;;;17.59;89.11
66887;BME280;67239;51.680;5.976;2023-08-24T02:51:23;101609.09;;;17.54;89.40
66887;BME280;67239;51.680;5.976;2023-08-24T02:53:50;101593.88;;;17.57;89.54
66887;BME280;67239;51.680;5.976;2023-08-24T02:56:20;101598.13;;;17.61;90.23
66887;BME280;67239;51.680;5.976;2023-08-24T02:58:47;101591.94;;;17.60;90.24
66887;BME280;67239;51.680;5.976;2023-08-24T03:01:14;101584.75;;;17.62;90.39
66887;BME280;67239;51.680;5.976;2023-08-24T03:03:41;101579.03;;;17.70;91.04
66887;BME280;67239;51.680;5.976;2023-08-24T03:06:33;101562.41;;;17.82;90.73
66887;BME280;67239;51.680;5.976;2023-08-24T03:09:27;101558.81;;;18.03;90.08
66887;BME280;67239;51.680;5.976;2023-08-24T03:11:54;101553.94;;;18.11;89.68
66887;BME280;67239;51.680;5.976;2023-08-24T03:14:21;101550.88;;;18.19;89.17
66887;BME280;67239;51.680;5.976;2023-08-24T03:16:49;101554.41;;;18.19;88.95
66887;BME280;67239;51.680;5.976;2023-08-24T03:19:16;101542.31;;;18.12;88.95
66887;BME280;67239;51.680;5.976;2023-08-24T03:21:45;101533.75;;;18.05;89.53
66887;BME280;67239;51.680;5.976;2023-08-24T03:24:12;101537.59;;;17.99;90.06
66887;BME280;67239;51.680;5.976;2023-08-24T03:26:39;101532.56;;;17.93;90.67
66887;BME280;67239;51.680;5.976;2023-08-24T03:29:06;101514.13;;;17.89;91.44
66887;BME280;67239;51.680;5.976;2023-08-24T03:31:33;101500.84;;;17.87;92.09
66887;BME280;67239;51.680;5.976;2023-08-24T03:34:00;101502.66;;;17.87;92.36
66887;BME280;67239;51.680;5.976;2023-08-24T03:36:28;101477.78;;;17.86;93.02
66887;BME280;67239;51.680;5.976;2023-08-24T03:38:55;101461.63;;;17.89;93.60
66887;BME280;67239;51.680;5.976;2023-08-24T03:41:22;101453.53;;;17.91;93.67
66887;BME280;67239;51.680;5.976;2023-08-24T03:43:49;101453.63;;;17.89;94.09
66887;BME280;67239;51.680;5.976;2023-08-24T03:46:16;101460.59;;;17.92;94.35
66887;BME280;67239;51.680;5.976;2023-08-24T03:48:44;101472.06;;;17.94;94.72
66887;BME280;67239;51.680;5.976;2023-08-24T03:51:11;101464.72;;;17.99;94.84
66887;BME280;67239;51.680;5.976;2023-08-24T03:53:38;101454.66;;;18.04;94.43
66887;BME280;67239;51.680;5.976;2023-08-24T03:56:06;101462.44;;;18.09;94.65
66887;BME280;67239;51.680;5.976;2023-08-24T03:58:34;101438.38;;;18.10;94.52
66887;BME280;67239;51.680;5.976;2023-08-24T04:01:04;101435.50;;;18.13;94.71
66887;BME280;67239;51.680;5.976;2023-08-24T04:03:31;101430.19;;;18.13;94.69
66887;BME280;67239;51.680;5.976;2023-08-24T04:05:58;101421.31;;;18.13;94.99
66887;BME280;67239;51.680;5.976;2023-08-24T04:08:25;101425.03;;;18.10;94.43
66887;BME280;67239;51.680;5.976;2023-08-24T04:10:52;101439.38;;;18.08;95.27
66887;BME280;67239;51.680;5.976;2023-08-24T04:13:20;101456.41;;;18.05;95.27
66887;BME280;67239;51.680;5.976;2023-08-24T04:15:48;101458.72;;;17.94;96.27
66887;BME280;67239;51.680;5.976;2023-08-24T04:18:16;101460.09;;;17.85;96.54
66887;BME280;67239;51.680;5.976;2023-08-24T04:20:43;101458.66;;;17.78;97.34
66887;BME280;67239;51.680;5.976;2023-08-24T04:23:13;101466.81;;;17.75;97.90
66887;BME280;67239;51.680;5.976;2023-08-24T04:25:40;101452.16;;;17.66;98.52
66887;BME280;67239;51.680;5.976;2023-08-24T04:28:07;101452.84;;;17.69;99.30
66887;BME280;67239;51.680;5.976;2023-08-24T04:30:34;101450.97;;;17.72;99.11
66887;BME280;67239;51.680;5.976;2023-08-24T04:33:02;101447.84;;;17.81;99.09
66887;BME280;67239;51.680;5.976;2023-08-24T04:35:33;101456.53;;;17.84;98.96
66887;BME280;67239;51.680;5.976;2023-08-24T04:38:03;101454.81;;;17.83;98.71
66887;BME280;67239;51.680;5.976;2023-08-24T04:40:38;101468.38;;;17.79;98.69
66887;BME280;67239;51.680;5.976;2023-08-24T04:43:12;101467.75;;;17.74;99.26
66887;BME280;67239;51.680;5.976;2023-08-24T04:45:40;101467.59;;;17.77;99.77
66887;BME280;67239;51.680;5.976;2023-08-24T04:48:07;101459.34;;;17.81;99.88
66887;BME280;67239;51.680;5.976;2023-08-24T04:50:34;101444.00;;;17.87;99.26
66887;BME280;67239;51.680;5.976;2023-08-24T04:53:01;101447.94;;;17.97;99.42
66887;BME280;67239;51.680;5.976;2023-08-24T04:55:29;101439.53;;;18.05;98.78
66887;BME280;67239;51.680;5.976;2023-08-24T04:57:56;101441.19;;;18.07;98.13
66887;BME280;67239;51.680;5.976;2023-08-24T05:00:23;101441.09;;;18.09;97.78
66887;BME280;67239;51.680;5.976;2023-08-24T05:02:50;101443.59;;;18.12;97.35
66887;BME280;67239;51.680;5.976;2023-08-24T05:05:17;101447.31;;;18.09;97.02
66887;BME280;67239;51.680;5.976;2023-08-24T05:07:44;101444.00;;;18.04;96.74
66887;BME280;67239;51.680;5.976;2023-08-24T05:10:11;101454.91;;;17.99;97.13
66887;BME280;67239;51.680;5.976;2023-08-24T05:12:38;101453.47;;;17.92;97.28
66887;BME280;67239;51.680;5.976;2023-08-24T05:15:06;101456.28;;;17.89;97.48
66887;BME280;67239;51.680;5.976;2023-08-24T05:17:33;101459.91;;;17.88;97.70
66887;BME280;67239;51.680;5.976;2023-08-24T05:20:00;101456.84;;;17.96;98.04
66887;BME280;67239;51.680;5.976;2023-08-24T05:22:28;101453.03;;;18.02;97.51
66887;BME280;67239;51.680;5.976;2023-08-24T05:24:56;101452.09;;;18.03;97.11
66887;BME280;67239;51.680;5.976;2023-08-24T05:27:23;101455.63;;;18.03;97.02
66887;BME280;67239;51.680;5.976;2023-08-24T05:29:50;101454.94;;;18.33;95.85
66887;BME280;67239;51.680;5.976;2023-08-24T05:32:17;101453.75;;;19.20;93.08
66887;BME280;67239;51.680;5.976;2023-08-24T05:34:47;101450.50;;;19.62;90.59
66887;BME280;67239;51.680;5.976;2023-08-24T05:37:14;101443.19;;;19.80;89.25
66887;BME280;67239;51.680;5.976;2023-08-24T05:39:41;101447.31;;;19.55;89.13
66887;BME280;67239;51.680;5.976;2023-08-24T05:42:09;101445.72;;;19.36;89.31
66887;BME280;67239;51.680;5.976;2023-08-24T05:44:36;101458.69;;;18.96;90.81
66887;BME280;67239;51.680;5.976;2023-08-24T05:47:03;101454.69;;;18.71;92.25
66887;BME280;67239;51.680;5.976;2023-08-24T05:49:31;101450.34;;;18.53;93.17
66887;BME280;67239;51.680;5.976;2023-08-24T05:51:58;101437.47;;;18.43;93.99
66887;BME280;67239;51.680;5.976;2023-08-24T05:54:25;101435.84;;;18.41;94.47
66887;BME280;67239;51.680;5.976;2023-08-24T05:56:52;101429.66;;;18.40;95.08
66887;BME280;67239;51.680;5.976;2023-08-24T05:59:19;101417.00;;;18.44;95.34
66887;BME280;67239;51.680;5.976;2023-08-24T06:01:46;101420.22;;;18.51;95.37
66887;BME280;67239;51.680;5.976;2023-08-24T06:04:13;101419.84;;;18.57;95.54
66887;BME280;67239;51.680;5.976;2023-08-24T06:06:40;101405.22;;;18.64;95.04
66887;BME280;67239;51.680;5.976;2023-08-24T06:09:07;101403.06;;;18.71;94.80
66887;BME280;67239;51.680;5.976;2023-08-24T06:11:36;101401.88;;;18.76;94.54
66887;BME280;67239;51.680;5.976;2023-08-24T06:14:04;101389.88;;;18.84;94.09
66887;BME280;67239;51.680;5.976;2023-08-24T06:16:31;101390.34;;;18.92;94.34
66887;BME280;67239;51.680;5.976;2023-08-24T06:18:58;101377.50;;;18.99;94.07
66887;BME280;67239;51.680;5.976;2023-08-24T06:21:26;101378.69;;;19.09;93.58
66887;BME280;67239;51.680;5.976;2023-08-24T06:23:53;101384.47;;;19.17;92.81
66887;BME280;67239;51.680;5.976;2023-08-24T06:26:20;101363.56;;;19.24;92.67
66887;BME280;67239;51.680;5.976;2023-08-24T06:28:48;101355.09;;;19.32;92.25
66887;BME280;67239;51.680;5.976;2023-08-24T06:31:15;101349.31;;;19.39;91.48
66887;BME280;67239;51.680;5.976;2023-08-24T06:33:43;101349.72;;;19.48;91.41
66887;BME280;67239;51.680;5.976;2023-08-24T06:36:10;101349.34;;;19.54;91.17
66887;BME280;67239;51.680;5.976;2023-08-24T06:38:38;101347.06;;;19.62;90.90
66887;BME280;67239;51.680;5.976;2023-08-24T06:41:06;101351.94;;;19.70;90.16
66887;BME280;67239;51.680;5.976;2023-08-24T06:43:35;101354.16;;;19.78;90.15
66887;BME280;67239;51.680;5.976;2023-08-24T06:46:05;101358.97;;;19.87;90.11
66887;BME280;67239;51.680;5.976;2023-08-24T06:48:36;101364.41;;;20.00;89.59
66887;BME280;67239;51.680;5.976;2023-08-24T06:51:04;101363.88;;;20.09;88.57
66887;BME280;67239;51.680;5.976;2023-08-24T06:53:31;101369.38;;;20.21;88.73
66887;BME280;67239;51.680;5.976;2023-08-24T06:55:58;101366.06;;;20.31;88.62
66887;BME280;67239;51.680;5.976;2023-08-24T06:58:25;101376.72;;;20.46;87.67
66887;BME280;67239;51.680;5.976;2023-08-24T07:00:52;101388.56;;;20.56;86.29
66887;BME280;67239;51.680;5.976;2023-08-24T07:03:21;101391.66;;;20.64;85.59
66887;BME280;67239;51.680;5.976;2023-08-24T07:05:48;101385.59;;;20.75;85.10
66887;BME280;67239;51.680;5.976;2023-08-24T07:08:15;101378.69;;;20.86;85.18
66887;BME280;67239;51.680;5.976;2023-08-24T07:10:42;101369.84;;;20.98;83.57
66887;BME280;67239;51.680;5.976;2023-08-24T07:13:09;101356.69;;;21.08;84.00
66887;BME280;67239;51.680;5.976;2023-08-24T07:15:36;101355.03;;;21.20;82.86
66887;BME280;67239;51.680;5.976;2023-08-24T07:18:04;101357.94;;;21.30;83.19
66887;BME280;67239;51.680;5.976;2023-08-24T07:20:33;101358.94;;;21.41;82.76
66887;BME280;67239;51.680;5.976;2023-08-24T07:23:00;101362.69;;;21.52;80.88
66887;BME280;67239;51.680;5.976;2023-08-24T07:25:28;101362.19;;;21.60;79.56
66887;BME280;67239;51.680;5.976;2023-08-24T07:27:55;101356.31;;;21.67;80.24
66887;BME280;67239;51.680;5.976;2023-08-24T07:30:26;101356.53;;;21.77;79.93
66887;BME280;67239;51.680;5.976;2023-08-24T07:33:01;101360.06;;;21.91;80.44
66887;BME280;67239;51.680;5.976;2023-08-24T07:35:30;101355.66;;;22.02;80.42
66887;BME280;67239;51.680;5.976;2023-08-24T07:37:57;101358.66;;;22.11;79.58
66887;BME280;67239;51.680;5.976;2023-08-24T07:40:25;101361.44;;;22.22;79.30
66887;BME280;67239;51.680;5.976;2023-08-24T07:42:54;101362.50;;;22.32;78.80
66887;BME280;67239;51.680;5.976;2023-08-24T07:45:23;101365.28;;;22.44;78.89
66887;BME280;67239;51.680;5.976;2023-08-24T07:47:50;101360.59;;;22.59;77.38
66887;BME280;67239;51.680;5.976;2023-08-24T07:50:18;101351.78;;;22.70;76.72
66887;BME280;67239;51.680;5.976;2023-08-24T07:52:46;101341.59;;;22.86;76.99
66887;BME280;67239;51.680;5.976;2023-08-24T07:55:15;101343.59;;;22.95;74.73
66887;BME280;67239;51.680;5.976;2023-08-24T07:57:43;101335.81;;;23.04;74.33
66887;BME280;67239;51.680;5.976;2023-08-24T08:00:10;101330.59;;;23.14;74.65
66887;BME280;67239;51.680;5.976;2023-08-24T08:02:40;101332.38;;;23.26;74.24
66887;BME280;67239;51.680;5.976;2023-08-24T08:05:08;101331.31;;;23.40;73.90
66887;BME280;67239;51.680;5.976;2023-08-24T08:07:37;101330.13;;;23.55;70.74
66887;BME280;67239;51.680;5.976;2023-08-24T08:10:04;101332.56;;;23.58;70.25
66887;BME280;67239;51.680;5.976;2023-08-24T08:12:33;101329.53;;;23.63;70.79
66887;BME280;67239;51.680;5.976;2023-08-24T08:15:01;101337.84;;;23.71;71.21
66887;BME280;67239;51.680;5.976;2023-08-24T08:17:29;101335.06;;;23.84;69.66
66887;BME280;67239;51.680;5.976;2023-08-24T08:20:00;101327.47;;;23.89;69.66
66887;BME280;67239;51.680;5.976;2023-08-24T08:22:27;101332.50;;;23.94;69.64
66887;BME280;67239;51.680;5.976;2023-08-24T08:24:54;101334.59;;;24.02;69.99
66887;BME280;67239;51.680;5.976;2023-08-24T08:27:23;101334.47;;;24.15;69.70
66887;BME280;67239;51.680;5.976;2023-08-24T08:29:50;101333.50;;;24.27;68.77
66887;BME280;67239;51.680;5.976;2023-08-24T08:32:18;101327.88;;;24.30;68.64
66887;BME280;67239;51.680;5.976;2023-08-24T08:34:47;101330.06;;;24.37;69.41
66887;BME280;67239;51.680;5.976;2023-08-24T08:37:14;101330.78;;;24.50;68.05
66887;BME280;67239;51.680;5.976;2023-08-24T08:39:42;101333.53;;;24.60;68.44
66887;BME280;67239;51.680;5.976;2023-08-24T08:42:13;101324.50;;;24.72;68.22
66887;BME280;67239;51.680;5.976;2023-08-24T08:44:42;101317.78;;;24.88;68.31
66887;BME280;67239;51.680;5.976;2023-08-24T08:47:13;101330.84;;;25.04;67.87
66887;BME280;67239;51.680;5.976;2023-08-24T08:49:42;101319.75;;;25.18;68.08
66887;BME280;67239;51.680;5.976;2023-08-24T08:52:12;101308.91;;;25.30;65.79
66887;BME280;67239;51.680;5.976;2023-08-24T08:54:39;101304.69;;;25.37;65.70
66887;BME280;67239;51.680;5.976;2023-08-24T08:57:07;101298.91;;;25.41;66.51
66887;BME280;67239;51.680;5.976;2023-08-24T08:59:34;101295.31;;;25.52;64.33
66887;BME280;67239;51.680;5.976;2023-08-24T09:02:03;101283.78;;;25.50;64.68
66887;BME280;67239;51.680;5.976;2023-08-24T09:04:33;101273.56;;;25.54;64.53
66887;BME280;67239;51.680;5.976;2023-08-24T09:07:01;101257.97;;;25.57;63.65
66887;BME280;67239;51.680;5.976;2023-08-24T09:09:32;101244.47;;;25.57;63.51
66887;BME280;67239;51.680;5.976;2023-08-24T09:12:00;101247.88;;;25.60;63.94
66887;BME280;67239;51.680;5.976;2023-08-24T09:14:28;101229.91;;;25.70;64.30
66887;BME280;67239;51.680;5.976;2023-08-24T09:16:55;101226.63;;;25.76;64.16
66887;BME280;67239;51.680;5.976;2023-08-24T09:19:28;101227.53;;;25.86;63.78
66887;BME280;67239;51.680;5.976;2023-08-24T09:21:57;101222.69;;;25.90;62.51
66887;BME280;67239;51.680;5.976;2023-08-24T09:24:29;101217.03;;;25.93;63.03
66887;BME280;67239;51.680;5.976;2023-08-24T09:27:00;101211.22;;;25.98;62.74
66887;BME280;67239;51.680;5.976;2023-08-24T09:29:40;101194.59;;;26.02;62.58
66887;BME280;67239;51.680;5.976;2023-08-24T09:32:08;101195.88;;;26.08;62.71
66887;BME280;67239;51.680;5.976;2023-08-24T09:34:36;101189.97;;;26.14;63.54
66887;BME280;67239;51.680;5.976;2023-08-24T09:37:04;101190.22;;;26.21;62.20
66887;BME280;67239;51.680;5.976;2023-08-24T09:39:39;101184.56;;;26.24;61.56
66887;BME280;67239;51.680;5.976;2023-08-24T09:42:06;101168.91;;;26.28;61.23
66887;BME280;67239;51.680;5.976;2023-08-24T09:44:34;101173.06;;;26.32;61.72
66887;BME280;67239;51.680;5.976;2023-08-24T09:47:01;101175.75;;;26.42;61.60
66887;BME280;67239;51.680;5.976;2023-08-24T09:49:31;101178.03;;;26.56;61.38
66887;BME280;67239;51.680;5.976;2023-08-24T09:51:59;101187.81;;;26.67;60.72
66887;BME280;67239;51.680;5.976;2023-08-24T09:54:27;101208.50;;;26.78;61.02
66887;BME280;67239;51.680;5.976;2023-08-24T09:56:55;101222.69;;;26.90;60.77
66887;BME280;67239;51.680;5.976;2023-08-24T09:59:26;101236.06;;;27.01;59.99
66887;BME280;67239;51.680;5.976;2023-08-24T10:01:55;101240.44;;;27.12;59.11
66887;BME280;67239;51.680;5.976;2023-08-24T10:04:25;101233.91;;;27.15;58.83
66887;BME280;67239;51.680;5.976;2023-08-24T10:07:08;101233.47;;;27.19;58.20
66887;BME280;67239;51.680;5.976;2023-08-24T10:09:44;101225.75;;;27.24;57.40
66887;BME280;67239;51.680;5.976;2023-08-24T10:12:14;101225.75;;;27.24;57.68
66887;BME280;67239;51.680;5.976;2023-08-24T10:15:01;101226.63;;;27.25;58.72
66887;BME280;67239;51.680;5.976;2023-08-24T10:17:32;101223.03;;;27.34;59.24
66887;BME280;67239;51.680;5.976;2023-08-24T10:20:00;101221.72;;;27.38;57.93
66887;BME280;67239;51.680;5.976;2023-08-24T10:22:28;101210.75;;;27.40;58.40
66887;BME280;67239;51.680;5.976;2023-08-24T10:24:57;101212.19;;;27.44;57.99
66887;BME280;67239;51.680;5.976;2023-08-24T10:27:26;101209.59;;;27.42;58.16
66887;BME280;67239;51.680;5.976;2023-08-24T10:29:54;101210.75;;;27.40;57.92
66887;BME280;67239;51.680;5.976;2023-08-24T10:32:22;101214.59;;;27.37;57.98
66887;BME280;67239;51.680;5.976;2023-08-24T10:34:51;101209.50;;;27.34;58.44
66887;BME280;67239;51.680;5.976;2023-08-24T10:37:25;101200.22;;;27.37;58.18
66887;BME280;67239;51.680;5.976;2023-08-24T10:39:54;101206.34;;;27.39;59.24
66887;BME280;67239;51.680;5.976;2023-08-24T10:42:22;101193.94;;;27.46;59.39
66887;BME280;67239;51.680;5.976;2023-08-24T10:44:49;101199.91;;;27.50;59.16
66887;BME280;67239;51.680;5.976;2023-08-24T10:47:21;101192.13;;;27.47;58.78
66887;BME280;67239;51.680;5.976;2023-08-24T10:52:23;101188.13;;;27.31;58.39
66887;BME280;67239;51.680;5.976;2023-08-24T10:54:53;101186.47;;;27.20;59.08
66887;BME280;67239;51.680;5.976;2023-08-24T10:57:23;101193.78;;;27.10;59.83
66887;BME280;67239;51.680;5.976;2023-08-24T11:02:50;101190.13;;;26.81;60.92
66887;BME280;67239;51.680;5.976;2023-08-24T11:05:27;101192.38;;;26.66;61.32
66887;BME280;67239;51.680;5.976;2023-08-24T11:08:02;101189.66;;;26.57;61.40
66887;BME280;67239;51.680;5.976;2023-08-24T11:10:34;101203.34;;;26.55;61.58
66887;BME280;67239;51.680;5.976;2023-08-24T11:13:17;101207.75;;;26.56;61.55
66887;BME280;67239;51.680;5.976;2023-08-24T11:15:48;101224.97;;;26.55;61.08
66887;BME280;67239;51.680;5.976;2023-08-24T11:18:23;101219.84;;;26.52;61.52
66887;BME280;67239;51.680;5.976;2023-08-24T11:20:56;101227.09;;;26.51;60.71
66887;BME280;67239;51.680;5.976;2023-08-24T11:23:34;101229.38;;;26.56;60.82
66887;BME280;67239;51.680;5.976;2023-08-24T11:26:01;101210.88;;;26.61;60.67
66887;BME280;67239;51.680;5.976;2023-08-24T11:28:30;101191.13;;;26.71;60.60
66887;BME280;67239;51.680;5.976;2023-08-24T11:30:58;101179.59;;;26.78;60.65
66887;BME280;67239;51.680;5.976;2023-08-24T11:35:56;101178.28;;;26.92;60.64
66887;BME280;67239;51.680;5.976;2023-08-24T11:38:24;101179.38;;;27.09;60.78
66887;BME280;67239;51.680;5.976;2023-08-24T11:40:54;101188.13;;;27.31;60.68
66887;BME280;67239;51.680;5.976;2023-08-24T11:43:25;101187.34;;;27.58;60.19
66887;BME280;67239;51.680;5.976;2023-08-24T11:45:57;101196.38;;;27.77;59.12
66887;BME280;67239;51.680;5.976;2023-08-24T11:48:26;101186.03;;;27.90;58.50
66887;BME280;67239;51.680;5.976;2023-08-24T11:50:59;101174.41;;;27.98;58.48
66887;BME280;67239;51.680;5.976;2023-08-24T11:53:28;101163.38;;;28.10;58.48
66887;BME280;67239;51.680;5.976;2023-08-24T11:55:58;101157.38;;;28.16;58.18
66887;BME280;67239;51.680;5.976;2023-08-24T11:58:34;101136.41;;;28.18;57.95
66887;BME280;67239;51.680;5.976;2023-08-24T12:01:04;101127.41;;;28.17;57.34
66887;BME280;67239;51.680;5.976;2023-08-24T12:03:32;101116.84;;;28.14;57.33
66887;BME280;67239;51.680;5.976;2023-08-24T12:06:09;101100.75;;;28.13;56.91
66887;BME280;67239;51.680;5.976;2023-08-24T12:08:42;101098.34;;;28.10;57.40
66887;BME280;67239;51.680;5.976;2023-08-24T12:13:51;101083.09;;;27.90;57.41
66887;BME280;67239;51.680;5.976;2023-08-24T12:16:21;101066.84;;;27.72;57.39
66887;BME280;67239;51.680;5.976;2023-08-24T12:18:54;101067.97;;;27.52;57.56
66887;BME280;67239;51.680;5.976;2023-08-24T12:21:23;101057.25;;;27.32;58.50
66887;BME280;67239;51.680;5.976;2023-08-24T12:24:00;101058.31;;;27.21;58.93
66887;BME280;67239;51.680;5.976;2023-08-24T12:26:33;101056.34;;;27.13;59.65
66887;BME280;67239;51.680;5.976;2023-08-24T12:29:06;101042.94;;;27.12;60.23
66887;BME280;67239;51.680;5.976;2023-08-24T12:31:36;101033.72;;;27.15;60.18
66887;BME280;67239;51.680;5.976;2023-08-24T12:34:05;101026.44;;;27.15;60.45
66887;BME280;67239;51.680;5.976;2023-08-24T12:36:37;101024.44;;;27.17;60.53
66887;BME280;67239;51.680;5.976;2023-08-24T12:39:06;101018.00;;;27.18;60.50
66887;BME280;67239;51.680;5.976;2023-08-24T12:41:37;101026.69;;;27.22;60.94
66887;BME280;67239;51.680;5.976;2023-08-24T12:44:04;101025.06;;;27.29;60.70
66887;BME280;67239;51.680;5.976;2023-08-24T12:46:35;101034.03;;;27.30;61.17
66887;BME280;67239;51.680;5.976;2023-08-24T12:49:03;101028.94;;;27.26;61.40
66887;BME280;67239;51.680;5.976;2023-08-24T12:51:30;101022.81;;;27.24;61.55
66887;BME280;67239;51.680;5.976;2023-08-24T12:53:57;101028.09;;;27.26;61.85
66887;BME280;67239;51.680;5.976;2023-08-24T12:56:25;101021.25;;;27.22;61.85
66887;BME280;67239;51.680;5.976;2023-08-24T12:58:52;101019.00;;;27.17;62.08
66887;BME280;67239;51.680;5.976;2023-08-24T13:01:19;101030.44;;;27.11;62.10
66887;BME280;67239;51.680;5.976;2023-08-24T13:03:46;101041.31;;;27.01;62.32
66887;BME280;67239;51.680;5.976;2023-08-24T13:06:13;101048.31;;;26.94;62.52
66887;BME280;67239;51.680;5.976;2023-08-24T13:08:52;101051.47;;;26.89;62.89
66887;BME280;67239;51.680;5.976;2023-08-24T13:11:21;101063.56;;;26.85;63.00